LL98 weather

John W Meils Restricted Landing Area
Rutland, Illinois, United States

Public forecast

Using degrees Fahrenheit for public forecast. Weather courtesy of forecast.io.

Closest aviation weather report (METAR) to John W Meils Restricted Landing Area

Closest report is Marshall County Airport, 13.4 nm (24.8 km) WNW. Retrieved 2019/10/20 23:35 UTC (0 seconds ago):

KC75 202335Z AUTO 10006KT 10SM CLR 15/10 A2987 RMK AO2 T01520095

Closest aviation forecast (TAF) to John W Meils Restricted Landing Area

Closest forecast is Central Illinois Regional Airport at Bloomington-Normal, 29.3 nm (54.3 km) SSE. Retrieved 2019/10/20 18:34 UTC (5 hours ago):

TAF KBMI 201731Z 2018/2118 05008KT P6SM SKC FM202000 08006KT P6SM SCT040 FM211000 14013G22KT 6SM SHRA BR BKN030 FM211400 16017G26KT P6SM SHRA OVC010